Wishon, California
Current Conditions -  °F | °C
As of 6:53 PM on Saturday 20 Dec 2014 (Local Time) from KFAT Reporting Station
Broken Clouds Broken Clouds  
Wind Chill: 56°   Ceiling: 12000
Heat Index: 56°   Visibility: 10mi
Dew Point: 52°   Wind: 5mph
Humidity: 87%   Direction: 320°NW
Pressure: 30.24"   Gusts: NA
Location:  37.27°N, 119.54°W
Report Text: KFAT 210253Z 32004KT 10SM SCT100 BKN120 13/11 A3024 RMK AO2 SLP239 T01330111 53010
Loading
Personal Weather Stations






























Interactive Weather Map New forecast layout! Learn more

10-Day Weather Forecast

Advertisements
Track Severe Weather on mobile